Time;durP1;ratioP1;P1;durP2;ratioP2;P2;SDS_P1;SDS_P2;PMS_P1;PMS_P2;Temp;Humidity;BMP_temperature;BMP_pressure;BME280_temperature;BME280_humidity;BME280_pressure;Samples;Min_cycle;Max_cycle;Signal;HPM_P1;HPM_P2
2022/08/10 00:01:17;;;;;;;1.50;1.33;;;19.80;74.30;;;;;;5031857;28;20206;-60
2022/08/10 00:03:45;;;;;;;1.83;1.50;;;19.80;74.50;;;;;;5031859;28;20840;-62
2022/08/10 00:06:11;;;;;;;3.35;1.58;;;19.80;75.00;;;;;;5031870;28;20271;-60
2022/08/10 00:08:38;;;;;;;2.20;1.50;;;19.80;75.10;;;;;;5035270;28;20233;-61
2022/08/10 00:11:05;;;;;;;3.33;1.58;;;19.80;75.40;;;;;;5035790;28;20233;-61
2022/08/10 00:13:33;;;;;;;2.72;1.30;;;19.70;75.80;;;;;;5035750;28;20206;-61
2022/08/10 00:16:00;;;;;;;3.42;1.50;;;19.70;76.80;;;;;;5035782;28;20217;-61
2022/08/10 00:18:27;;;;;;;3.72;1.55;;;19.60;76.50;;;;;;5035834;28;20226;-61
2022/08/10 00:20:54;;;;;;;3.03;1.70;;;19.50;77.00;;;;;;5035973;28;20351;-61
2022/08/10 00:23:21;;;;;;;2.67;1.58;;;19.40;77.70;;;;;;5035833;28;20252;-61
2022/08/10 00:25:47;;;;;;;2.25;1.50;;;19.30;78.30;;;;;;5035484;28;20268;-61
2022/08/10 00:28:14;;;;;;;2.08;1.50;;;19.30;78.70;;;;;;5035310;28;20260;-61
2022/08/10 00:30:42;;;;;;;1.60;1.48;;;19.20;78.80;;;;;;5035725;28;20222;-61
2022/08/10 00:33:09;;;;;;;1.95;1.50;;;19.20;79.20;;;;;;5035472;28;20559;-61
2022/08/10 00:35:35;;;;;;;3.58;1.50;;;19.20;79.60;;;;;;5035426;28;20232;-61
2022/08/10 00:38:02;;;;;;;3.33;1.60;;;19.10;80.00;;;;;;5035318;28;20300;-61
2022/08/10 00:40:29;;;;;;;3.38;1.45;;;19.10;80.60;;;;;;5035383;28;20214;-61
2022/08/10 00:42:55;;;;;;;4.50;1.70;;;19.00;81.00;;;;;;5035433;28;20210;-60
2022/08/10 00:45:22;;;;;;;1.77;1.50;;;19.00;81.30;;;;;;5035242;28;20202;-60
2022/08/10 00:47:50;;;;;;;1.70;1.40;;;19.00;81.40;;;;;;5034976;28;20657;-60
2022/08/10 00:50:17;;;;;;;3.53;1.33;;;19.00;81.70;;;;;;5035293;28;20226;-60
2022/08/10 00:52:45;;;;;;;5.38;1.80;;;18.90;82.50;;;;;;5035148;28;20620;-60
2022/08/10 00:55:12;;;;;;;2.88;1.40;;;18.90;83.10;;;;;;5034869;28;20749;-60
2022/08/10 00:57:39;;;;;;;5.03;1.63;;;18.80;83.30;;;;;;5034864;28;20718;-61
2022/08/10 01:00:08;;;;;;;2.55;1.50;;;18.80;83.90;;;;;;5035083;28;20202;-61
2022/08/10 01:02:35;;;;;;;2.65;1.70;;;18.70;84.30;;;;;;5035244;28;20203;-61
2022/08/10 01:05:07;;;;;;;3.83;1.60;;;18.80;84.80;;;;;;5035185;28;20213;-61
2022/08/10 01:07:48;;;;;;;1.42;1.33;;;18.70;85.00;;;;;;5034973;28;20238;-61
2022/08/10 01:10:28;;;;;;;2.55;1.55;;;18.70;85.20;;;;;;5035458;28;20317;-61
2022/08/10 01:13:09;;;;;;;3.47;1.50;;;18.70;85.80;;;;;;5034957;28;20206;-61
2022/08/10 01:15:46;;;;;;;1.75;1.50;;;18.60;86.30;;;;;;5034804;28;20635;-60
2022/08/10 01:18:18;;;;;;;2.17;1.70;;;18.60;86.60;;;;;;5034578;28;20649;-60
2022/08/10 01:20:58;;;;;;;4.15;1.45;;;18.50;87.10;;;;;;5034713;28;20678;-61
2022/08/10 01:23:53;;;;;;;4.13;1.73;;;18.50;87.40;;;;;;5034697;28;20210;-61
2022/08/10 01:26:39;;;;;;;1.98;1.65;;;18.50;87.90;;;;;;5014314;28;20213;-61
2022/08/10 01:29:27;;;;;;;2.22;1.67;;;18.50;88.30;;;;;;5034690;28;20235;-61
2022/08/10 01:31:59;;;;;;;2.80;1.90;;;18.50;88.60;;;;;;5034494;28;20268;-61
2022/08/10 01:34:34;;;;;;;1.98;1.55;;;18.50;88.70;;;;;;5034228;28;20210;-61
2022/08/10 01:37:05;;;;;;;2.90;1.65;;;18.50;89.10;;;;;;5034297;28;20634;-61
2022/08/10 01:39:37;;;;;;;2.00;1.50;;;18.50;89.20;;;;;;5034559;28;20206;-61
2022/08/10 01:42:06;;;;;;;3.92;1.70;;;18.60;89.50;;;;;;5034409;28;20284;-61
2022/08/10 01:44:37;;;;;;;4.10;1.75;;;18.60;89.80;;;;;;5034083;28;20213;-61
2022/08/10 01:49:58;;;;;;;1.92;1.55;;;18.60;90.00;;;;;;5034227;28;20209;-61
2022/08/10 01:52:27;;;;;;;2.88;1.70;;;18.60;90.50;;;;;;5033893;28;20705;-61
2022/08/10 01:54:56;;;;;;;2.47;1.65;;;18.50;90.10;;;;;;5033851;28;20207;-61
2022/08/10 01:57:24;;;;;;;1.58;1.38;;;18.60;90.30;;;;;;5033849;28;20222;-61
2022/08/10 01:59:54;;;;;;;3.53;1.77;;;18.60;90.60;;;;;;5033770;28;20206;-61
2022/08/10 02:02:22;;;;;;;4.60;1.48;;;18.50;90.60;;;;;;5034220;28;20205;-61
2022/08/10 02:04:50;;;;;;;3.03;1.60;;;18.40;90.70;;;;;;5034071;28;20214;-61
2022/08/10 02:07:21;;;;;;;1.92;1.40;;;18.40;90.90;;;;;;5033550;28;20710;-61
2022/08/10 02:09:52;;;;;;;1.80;1.40;;;18.30;91.20;;;;;;5033797;28;20237;-61
2022/08/10 02:12:21;;;;;;;3.20;1.83;;;18.30;91.50;;;;;;5033434;28;20650;-61
2022/08/10 02:14:53;;;;;;;2.17;1.80;;;18.30;91.70;;;;;;5033356;28;20666;-61
2022/08/10 02:17:22;;;;;;;1.58;1.40;;;18.30;91.80;;;;;;5033650;28;20234;-61
2022/08/10 02:19:51;;;;;;;2.33;1.60;;;18.20;92.00;;;;;;5033701;28;20241;-61
2022/08/10 02:22:19;;;;;;;2.65;1.63;;;18.10;92.40;;;;;;5033581;28;20205;-61
2022/08/10 02:24:46;;;;;;;1.70;1.48;;;18.00;92.60;;;;;;5033107;28;20207;-61
2022/08/10 02:27:13;;;;;;;3.05;1.80;;;18.00;93.00;;;;;;5033706;28;20630;-60
2022/08/10 02:29:41;;;;;;;4.60;1.90;;;17.90;93.10;;;;;;5032763;28;20207;-61
2022/08/10 02:32:11;;;;;;;2.28;1.73;;;17.90;93.30;;;;;;5033353;28;20222;-61
2022/08/10 02:34:40;;;;;;;4.55;2.10;;;17.90;93.60;;;;;;5033262;28;20206;-61
2022/08/10 02:37:08;;;;;;;2.22;1.60;;;17.80;94.00;;;;;;5033170;28;20222;-61
2022/08/10 02:39:36;;;;;;;2.78;1.38;;;17.70;94.20;;;;;;5033388;28;20206;-61
2022/08/10 02:42:08;;;;;;;2.88;1.77;;;17.70;94.50;;;;;;5033118;28;20202;-61
2022/08/10 02:44:39;;;;;;;5.25;1.73;;;17.70;94.70;;;;;;5032929;28;20217;-61
2022/08/10 02:47:11;;;;;;;2.28;1.60;;;17.60;95.00;;;;;;5032927;28;20222;-61
2022/08/10 02:49:43;;;;;;;2.58;1.80;;;17.50;95.30;;;;;;5032986;28;20215;-61
2022/08/10 02:52:16;;;;;;;1.95;1.70;;;17.40;95.80;;;;;;5033226;28;20230;-61
2022/08/10 02:54:50;;;;;;;2.80;1.95;;;17.30;96.30;;;;;;5032572;28;20675;-61
2022/08/10 02:57:20;;;;;;;3.75;1.65;;;17.30;96.40;;;;;;5032901;28;20234;-61
2022/08/10 02:59:50;;;;;;;3.15;1.40;;;17.30;96.80;;;;;;5032739;28;20638;-61
2022/08/10 03:02:26;;;;;;;3.17;1.70;;;17.30;96.80;;;;;;5032742;28;20257;-61
2022/08/10 03:04:56;;;;;;;4.60;1.73;;;17.30;96.80;;;;;;5032803;28;20210;-61
2022/08/10 03:07:25;;;;;;;3.55;1.77;;;17.30;97.00;;;;;;5032672;28;20226;-61
2022/08/10 03:09:53;;;;;;;3.50;1.73;;;17.40;97.20;;;;;;5032642;28;20214;-61
2022/08/10 03:12:21;;;;;;;2.28;1.80;;;17.40;97.20;;;;;;5032731;28;20237;-61
2022/08/10 03:14:49;;;;;;;3.03;1.65;;;17.40;97.40;;;;;;5032337;28;20202;-61
2022/08/10 03:17:20;;;;;;;2.65;1.90;;;17.40;97.40;;;;;;5032502;28;20234;-61
2022/08/10 03:19:47;;;;;;;4.07;1.50;;;17.40;97.50;;;;;;5032651;28;20210;-61
2022/08/10 03:22:16;;;;;;;2.03;1.70;;;17.30;97.70;;;;;;5032511;28;20249;-61
2022/08/10 03:24:44;;;;;;;4.93;1.80;;;17.30;97.90;;;;;;5032165;28;20206;-61
2022/08/10 03:27:12;;;;;;;5.25;1.90;;;17.30;97.80;;;;;;5032308;28;20230;-61
2022/08/10 03:29:39;;;;;;;2.28;1.77;;;17.40;97.80;;;;;;5032534;28;20206;-61
2022/08/10 03:32:08;;;;;;;2.22;1.60;;;17.50;97.80;;;;;;5032331;28;20234;-61
2022/08/10 03:34:37;;;;;;;5.05;1.90;;;17.40;97.90;;;;;;5032112;28;20673;-61
2022/08/10 03:37:04;;;;;;;3.53;1.80;;;17.50;98.00;;;;;;5032153;28;20581;-60
2022/08/10 03:39:30;;;;;;;2.30;2.00;;;17.40;98.20;;;;;;5032174;28;20207;-60
2022/08/10 03:42:00;;;;;;;1.73;1.63;;;17.40;98.20;;;;;;5031492;28;20277;-62
2022/08/10 03:44:31;;;;;;;3.25;1.70;;;17.40;98.30;;;;;;5032009;28;20202;-61
2022/08/10 03:47:00;;;;;;;3.53;1.88;;;17.40;98.40;;;;;;5032286;28;20206;-61
2022/08/10 03:49:30;;;;;;;3.58;1.83;;;17.50;98.50;;;;;;5075250;22;20225;-61
2022/08/10 03:51:59;;;;;;;3.28;1.88;;;17.40;98.50;;;;;;5036950;28;20220;-62
2022/08/10 03:54:27;;;;;;;1.80;1.70;;;17.40;98.70;;;;;;5033348;28;20222;-63
2022/08/10 03:56:54;;;;;;;3.42;2.03;;;17.30;98.80;;;;;;5033891;28;20233;-61
2022/08/10 03:59:22;;;;;;;3.17;2.05;;;17.30;99.10;;;;;;5033733;28;20606;-62
2022/08/10 04:01:51;;;;;;;2.67;2.05;;;17.30;99.20;;;;;;5033627;28;20202;-62
2022/08/10 04:04:18;;;;;;;2.20;1.80;;;17.20;99.30;;;;;;5033438;28;20217;-62
2022/08/10 04:06:45;;;;;;;2.53;1.70;;;17.20;99.50;;;;;;5033541;28;20212;-63
2022/08/10 04:09:15;;;;;;;7.05;1.80;;;17.20;99.50;;;;;;5033721;28;20317;-62
2022/08/10 04:11:42;;;;;;;3.97;2.20;;;17.20;99.50;;;;;;5033905;28;20229;-63
2022/08/10 04:14:08;;;;;;;2.28;1.80;;;17.30;99.60;;;;;;5033989;28;20203;-62
2022/08/10 04:16:35;;;;;;;2.13;1.77;;;17.30;99.50;;;;;;5033611;28;20689;-62
2022/08/10 04:19:03;;;;;;;2.72;1.92;;;17.30;99.50;;;;;;5033826;28;20230;-63
2022/08/10 04:21:35;;;;;;;2.63;1.80;;;17.30;99.50;;;;;;5033419;28;20214;-62
2022/08/10 04:24:04;;;;;;;2.58;1.85;;;17.30;99.60;;;;;;5033433;28;20206;-62
2022/08/10 04:26:32;;;;;;;6.90;2.20;;;17.30;99.60;;;;;;5033332;28;20210;-62
2022/08/10 04:28:59;;;;;;;3.17;1.83;;;17.30;99.70;;;;;;5033339;28;20226;-63
2022/08/10 04:31:27;;;;;;;3.22;2.10;;;17.30;99.70;;;;;;5034650;28;20226;-62
2022/08/10 04:33:57;;;;;;;3.10;2.30;;;17.30;99.70;;;;;;5033227;28;20206;-62
2022/08/10 04:36:25;;;;;;;3.38;1.90;;;17.30;99.90;;;;;;5032913;28;20666;-61
2022/08/10 04:38:53;;;;;;;2.22;1.75;;;17.20;99.90;;;;;;5033586;28;20592;-62
2022/08/10 04:41:20;;;;;;;4.55;2.03;;;17.20;99.90;;;;;;5033080;28;20217;-63
2022/08/10 04:43:48;;;;;;;19.52;12.77;;;17.30;99.90;;;;;;5032860;28;20492;-62
2022/08/10 04:46:15;;;;;;;20.08;13.25;;;17.40;99.90;;;;;;5032270;28;20206;-62
2022/08/10 04:48:42;;;;;;;11.90;7.60;;;17.40;99.90;;;;;;5032461;28;20238;-63
2022/08/10 04:51:10;;;;;;;8.63;5.40;;;17.40;99.90;;;;;;5032493;28;20213;-63
2022/08/10 04:53:37;;;;;;;9.38;4.13;;;17.50;99.90;;;;;;5034418;28;20202;-62
2022/08/10 04:56:07;;;;;;;5.68;2.80;;;17.50;99.80;;;;;;5036384;28;20206;-63
2022/08/10 04:58:34;;;;;;;8.52;4.25;;;17.60;99.80;;;;;;5037350;28;20257;-63
2022/08/10 05:01:02;;;;;;;5.60;3.97;;;17.60;99.70;;;;;;5036549;28;20228;-63
2022/08/10 05:03:29;;;;;;;8.05;4.43;;;17.70;99.70;;;;;;5036846;28;20206;-62
2022/08/10 05:05:55;;;;;;;7.43;3.70;;;17.70;99.70;;;;;;5036175;28;20260;-63
2022/08/10 05:08:22;;;;;;;8.30;3.90;;;17.70;99.50;;;;;;5036453;28;20229;-63
2022/08/10 05:10:49;;;;;;;5.05;3.42;;;17.80;99.40;;;;;;5036705;28;20269;-62
2022/08/10 05:13:16;;;;;;;4.00;2.78;;;17.80;99.40;;;;;;5036967;28;20237;-63
2022/08/10 05:15:44;;;;;;;7.68;2.40;;;17.90;99.30;;;;;;5036791;28;20210;-63
2022/08/10 05:18:12;;;;;;;5.90;2.60;;;18.00;99.00;;;;;;5037477;28;20215;-64
2022/08/10 05:20:39;;;;;;;3.55;2.20;;;18.00;98.70;;;;;;5037866;28;20206;-64
2022/08/10 05:23:06;;;;;;;4.15;2.00;;;18.10;98.40;;;;;;5037252;28;20256;-63
2022/08/10 05:25:33;;;;;;;3.97;2.03;;;18.20;98.00;;;;;;5036658;28;20245;-64
2022/08/10 05:28:00;;;;;;;2.45;2.03;;;18.30;97.70;;;;;;5037273;28;20234;-63
2022/08/10 05:30:27;;;;;;;3.60;1.88;;;18.50;97.40;;;;;;5035906;28;20206;-64
2022/08/10 05:32:54;;;;;;;3.80;1.95;;;18.60;96.90;;;;;;5036157;28;20292;-62
2022/08/10 05:35:22;;;;;;;2.80;1.63;;;18.70;96.60;;;;;;5037129;28;20206;-59
2022/08/10 05:37:50;;;;;;;5.63;2.03;;;18.80;96.40;;;;;;5036037;28;20230;-58
2022/08/10 05:40:18;;;;;;;2.30;1.77;;;19.00;96.20;;;;;;5036127;28;20552;-59
2022/08/10 05:42:45;;;;;;;2.92;1.70;;;19.50;95.80;;;;;;5036027;28;20213;-63
2022/08/10 05:45:19;;;;;;;2.40;1.80;;;21.00;94.10;;;;;;5036754;28;20213;-59
2022/08/10 05:47:46;;;;;;;4.22;3.35;;;23.10;91.00;;;;;;5036455;28;20241;-60
2022/08/10 05:50:15;;;;;;;4.60;1.60;;;25.20;83.20;;;;;;5035779;28;20213;-60
2022/08/10 05:52:43;;;;;;;5.60;1.95;;;27.00;74.60;;;;;;5036141;28;20222;-59
2022/08/10 05:55:11;;;;;;;2.45;1.40;;;28.70;67.50;;;;;;5036244;28;20214;-60
2022/08/10 05:57:38;;;;;;;5.90;1.60;;;30.00;61.90;;;;;;5036735;28;20218;-60
2022/08/10 06:00:08;;;;;;;2.63;1.70;;;31.30;57.70;;;;;;5036936;28;20210;-60
2022/08/10 06:02:38;;;;;;;3.00;1.70;;;32.20;55.30;;;;;;5036966;28;20206;-60
2022/08/10 06:05:08;;;;;;;5.07;1.95;;;33.00;52.40;;;;;;5036074;28;20206;-60
2022/08/10 06:07:40;;;;;;;3.45;1.30;;;33.60;50.70;;;;;;5036380;28;20217;-60
2022/08/10 06:10:12;;;;;;;2.08;1.17;;;34.30;49.40;;;;;;5036537;28;20198;-60
2022/08/10 06:12:40;;;;;;;2.80;1.30;;;34.70;47.50;;;;;;5037071;28;20230;-60
2022/08/10 06:15:08;;;;;;;4.28;1.40;;;35.20;46.80;;;;;;5035783;28;20688;-60
2022/08/10 06:17:37;;;;;;;2.33;1.38;;;35.70;45.60;;;;;;5036117;28;20617;-60
2022/08/10 06:20:05;;;;;;;2.03;1.10;;;36.20;44.60;;;;;;5036564;28;20293;-60
2022/08/10 06:22:32;;;;;;;4.25;1.13;;;36.60;43.20;;;;;;5036421;28;20198;-61
2022/08/10 06:25:01;;;;;;;1.35;1.05;;;37.00;42.70;;;;;;5036299;28;20210;-61
2022/08/10 06:27:29;;;;;;;2.22;1.15;;;37.30;42.20;;;;;;5036759;28;20214;-61
2022/08/10 06:29:58;;;;;;;3.50;1.27;;;37.70;41.20;;;;;;5035870;28;20206;-60
2022/08/10 06:32:27;;;;;;;2.28;1.17;;;38.00;40.10;;;;;;5035975;28;20222;-60
2022/08/10 06:34:56;;;;;;;2.92;1.05;;;37.90;39.80;;;;;;5036254;28;20321;-61
2022/08/10 06:37:26;;;;;;;3.63;1.40;;;37.80;40.00;;;;;;5035851;28;20217;-60
2022/08/10 06:39:53;;;;;;;1.52;1.00;;;37.90;39.90;;;;;;5036858;28;20210;-60
2022/08/10 06:42:26;;;;;;;2.47;1.13;;;37.60;40.10;;;;;;5035242;28;20206;-59
2022/08/10 06:44:59;;;;;;;1.75;1.00;;;37.60;40.10;;;;;;5035297;28;20210;-59
2022/08/10 06:47:32;;;;;;;2.22;1.17;;;37.90;39.60;;;;;;5035642;28;20688;-59
2022/08/10 06:50:02;;;;;;;2.85;1.20;;;38.30;38.80;;;;;;5035029;28;20257;-60
2022/08/10 06:52:31;;;;;;;1.38;1.13;;;38.30;38.70;;;;;;5035178;28;20238;-59
2022/08/10 06:55:00;;;;;;;4.88;1.30;;;38.40;38.50;;;;;;5034812;28;20206;-59
2022/08/10 06:57:31;;;;;;;1.63;1.30;;;38.60;38.30;;;;;;5035520;28;20569;-59
2022/08/10 07:00:02;;;;;;;3.15;1.20;;;38.80;38.10;;;;;;5035199;28;20232;-59
2022/08/10 07:02:35;;;;;;;5.60;1.20;;;38.90;37.50;;;;;;5036680;28;20256;-59
2022/08/10 07:05:04;;;;;;;4.85;1.20;;;38.80;37.40;;;;;;5036118;28;20248;-59
2022/08/10 07:07:36;;;;;;;3.05;1.10;;;38.20;37.70;;;;;;5035575;28;20205;-59
2022/08/10 07:10:04;;;;;;;1.55;1.20;;;37.30;38.50;;;;;;5035514;28;20206;-59
2022/08/10 07:12:32;;;;;;;1.63;1.05;;;36.50;39.60;;;;;;5035853;28;20271;-59
2022/08/10 07:15:01;;;;;;;1.77;1.10;;;36.50;40.00;;;;;;5035199;28;20214;-57
2022/08/10 07:17:31;;;;;;;4.93;1.20;;;37.20;39.10;;;;;;5033076;28;20621;-59
2022/08/10 07:20:00;;;;;;;3.10;1.02;;;37.80;38.40;;;;;;5034318;28;20626;-59
2022/08/10 07:22:29;;;;;;;5.93;1.23;;;37.80;37.80;;;;;;5035420;28;20214;-59
2022/08/10 07:24:58;;;;;;;2.78;1.20;;;37.70;38.30;;;;;;5034111;28;20268;-59
2022/08/10 07:27:26;;;;;;;1.27;1.17;;;37.90;37.70;;;;;;5034658;28;20236;-59
2022/08/10 07:29:54;;;;;;;3.58;0.90;;;37.70;37.90;;;;;;5035376;28;20624;-59
2022/08/10 07:32:24;;;;;;;3.28;1.60;;;37.10;38.60;;;;;;5034772;28;20250;-59
2022/08/10 07:34:54;;;;;;;2.63;1.35;;;37.00;39.10;;;;;;5034611;28;20237;-60
2022/08/10 07:37:24;;;;;;;4.85;1.20;;;37.30;38.90;;;;;;5033960;28;20565;-59
2022/08/10 07:39:53;;;;;;;2.40;1.13;;;37.80;38.10;;;;;;5033687;28;20251;-58
2022/08/10 07:42:22;;;;;;;2.58;1.48;;;38.30;37.60;;;;;;5033755;28;20297;-59
2022/08/10 07:44:50;;;;;;;1.85;1.05;;;38.20;37.70;;;;;;5031869;28;20265;-59
2022/08/10 07:47:22;;;;;;;1.73;1.20;;;38.30;37.50;;;;;;5034253;28;20238;-60
2022/08/10 07:49:51;;;;;;;2.90;1.15;;;38.20;37.20;;;;;;5034190;28;20289;-59
2022/08/10 07:52:19;;;;;;;3.22;1.02;;;38.10;37.50;;;;;;5034064;28;20218;-60
2022/08/10 07:54:50;;;;;;;2.42;1.27;;;38.00;37.60;;;;;;5033811;28;20203;-60
2022/08/10 07:57:20;;;;;;;4.88;1.33;;;37.60;37.90;;;;;;5034409;28;20206;-59
2022/08/10 07:59:55;;;;;;;3.95;1.30;;;37.10;38.20;;;;;;5033734;28;20206;-58
2022/08/10 08:02:27;;;;;;;4.63;1.40;;;36.60;39.50;;;;;;5034694;28;20209;-59
2022/08/10 08:04:58;;;;;;;2.97;1.10;;;36.50;39.00;;;;;;5035455;28;20210;-59
2022/08/10 08:07:27;;;;;;;2.85;1.38;;;36.30;39.30;;;;;;5036544;28;20213;-59
2022/08/10 08:09:56;;;;;;;2.15;1.10;;;35.90;39.40;;;;;;5035379;28;20202;-59
2022/08/10 08:12:23;;;;;;;1.80;1.10;;;35.60;40.10;;;;;;5033652;28;20233;-65
2022/08/10 08:14:52;;;;;;;1.30;1.00;;;35.80;39.70;;;;;;5034649;28;20207;-64
2022/08/10 08:17:21;;;;;;;2.72;1.17;;;36.40;39.00;;;;;;5034479;28;20398;-64
2022/08/10 08:19:50;;;;;;;4.13;1.20;;;36.90;38.60;;;;;;5033882;28;20202;-65
2022/08/10 08:22:19;;;;;;;2.88;1.15;;;37.20;38.00;;;;;;5034346;28;20211;-65
2022/08/10 08:24:47;;;;;;;2.70;1.20;;;37.10;38.30;;;;;;5034060;28;20221;-66
2022/08/10 08:27:18;;;;;;;4.10;0.95;;;36.80;37.90;;;;;;5034327;28;20202;-65
2022/08/10 08:29:46;;;;;;;3.80;1.50;;;36.50;38.20;;;;;;5059520;28;20201;-65
2022/08/10 08:32:17;;;;;;;4.28;1.27;;;36.20;37.90;;;;;;5060480;28;20239;-67
2022/08/10 08:34:46;;;;;;;1.88;1.40;;;35.40;38.70;;;;;;5059255;28;20262;-64
2022/08/10 08:37:16;;;;;;;3.53;1.13;;;34.80;39.40;;;;;;5057313;28;20703;-67
2022/08/10 08:39:44;;;;;;;1.30;1.02;;;33.50;41.00;;;;;;5058057;28;20366;-61
2022/08/10 08:42:21;;;;;;;2.70;1.20;;;32.20;41.90;;;;;;5056663;28;20209;-62
2022/08/10 08:45:03;;;;;;;1.90;1.13;;;30.80;43.80;;;;;;5056171;28;20255;-61
2022/08/10 08:47:46;;;;;;;2.92;1.20;;;29.50;45.70;;;;;;5057714;28;20201;-67
2022/08/10 08:50:31;;;;;;;3.78;1.40;;;28.50;47.60;;;;;;5056894;28;20248;-62
2022/08/10 08:53:19;;;;;;;6.15;1.60;;;27.90;48.50;;;;;;5057644;28;20312;-61
2022/08/10 08:55:54;;;;;;;2.55;1.33;;;27.60;48.70;;;;;;5057279;28;20216;-62
2022/08/10 08:58:31;;;;;;;3.20;1.25;;;27.40;49.80;;;;;;5057301;28;20279;-61
2022/08/10 09:01:08;;;;;;;4.03;1.38;;;27.20;50.30;;;;;;5058087;28;20568;-60
2022/08/10 09:04:07;;;;;;;2.17;1.20;;;27.00;50.60;;;;;;5058804;28;20295;-62
2022/08/10 09:06:54;;;;;;;1.20;1.00;;;27.00;50.10;;;;;;5045348;28;20265;-62
2022/08/10 09:09:35;;;;;;;3.10;1.40;;;26.90;49.80;;;;;;5057006;28;20229;-61
2022/08/10 09:12:19;;;;;;;1.20;1.10;;;26.90;49.60;;;;;;5055965;28;20213;-59
2022/08/10 09:14:52;;;;;;;3.60;1.38;;;26.80;49.80;;;;;;5055703;28;20229;-61
2022/08/10 09:17:28;;;;;;;3.53;1.20;;;26.80;49.50;;;;;;5054884;28;20209;-61
2022/08/10 09:20:02;;;;;;;4.07;1.40;;;26.80;48.90;;;;;;5055557;28;20201;-62
2022/08/10 09:22:33;;;;;;;4.57;1.25;;;26.90;48.70;;;;;;5055639;28;20241;-61
2022/08/10 09:25:09;;;;;;;2.92;1.23;;;26.90;48.40;;;;;;5055975;28;20209;-61
2022/08/10 09:27:44;;;;;;;0.95;0.90;;;27.00;47.60;;;;;;5052626;28;20236;-65
2022/08/10 09:30:15;;;;;;;3.58;1.20;;;27.10;45.80;;;;;;5036511;28;20279;-62
2022/08/10 09:32:46;;;;;;;2.05;1.00;;;27.10;46.80;;;;;;5035542;28;20237;-60
2022/08/10 09:35:20;;;;;;;3.45;1.20;;;27.20;46.60;;;;;;5034947;28;20220;-61
2022/08/10 09:37:55;;;;;;;6.53;1.25;;;27.20;46.30;;;;;;5035555;28;20234;-61
2022/08/10 09:40:29;;;;;;;2.65;1.20;;;27.20;46.30;;;;;;5034710;28;20309;-61
2022/08/10 09:43:03;;;;;;;1.17;0.80;;;27.30;47.00;;;;;;5034712;28;20700;-63
2022/08/10 09:45:39;;;;;;;16.77;2.35;;;27.20;48.30;;;;;;5034865;28;20240;-62
2022/08/10 09:48:13;;;;;;;1.02;0.93;;;27.30;47.50;;;;;;5035872;28;20240;-62
2022/08/10 09:50:51;;;;;;;5.65;1.27;;;27.40;46.80;;;;;;5035124;28;20275;-60
2022/08/10 09:53:24;;;;;;;9.20;1.75;;;27.50;47.50;;;;;;5037231;28;20230;-64
2022/08/10 09:56:06;;;;;;;3.15;1.40;;;27.50;46.40;;;;;;5036126;28;20236;-62
2022/08/10 09:58:43;;;;;;;2.33;1.17;;;27.50;46.20;;;;;;5035355;28;20241;-62
2022/08/10 10:01:19;;;;;;;10.45;1.70;;;27.50;47.00;;;;;;5034555;28;20201;-61
2022/08/10 10:03:54;;;;;;;2.60;1.20;;;27.50;47.00;;;;;;5034074;28;20272;-61
2022/08/10 10:06:29;;;;;;;3.53;1.20;;;27.60;47.70;;;;;;5034274;28;20206;-62
2022/08/10 10:09:03;;;;;;;2.05;1.20;;;27.70;46.70;;;;;;5033868;28;20241;-66
2022/08/10 10:11:42;;;;;;;2.70;1.27;;;27.70;46.70;;;;;;5034463;28;20210;-62
2022/08/10 10:14:22;;;;;;;3.70;1.10;;;27.60;46.60;;;;;;5034169;28;20226;-62
2022/08/10 10:17:01;;;;;;;3.60;1.10;;;27.70;46.90;;;;;;5033795;28;20217;-60
2022/08/10 10:19:54;;;;;;;1.30;1.20;;;27.90;47.00;;;;;;5034361;28;20317;-58
2022/08/10 10:22:38;;;;;;;2.40;1.15;;;28.10;46.30;;;;;;5033815;28;20369;-59
2022/08/10 10:25:13;;;;;;;2.30;1.35;;;28.10;46.40;;;;;;5034783;28;20293;-61
2022/08/10 10:27:48;;;;;;;1.75;1.05;;;28.20;47.30;;;;;;5034984;28;20232;-59
2022/08/10 10:30:19;;;;;;;3.20;1.10;;;28.20;46.70;;;;;;5034863;28;20213;-59
2022/08/10 10:32:59;;;;;;;2.13;0.98;;;28.10;46.40;;;;;;5034981;28;20206;-60
2022/08/10 10:35:33;;;;;;;2.80;1.20;;;28.20;45.60;;;;;;5035498;28;20217;-59
2022/08/10 10:38:03;;;;;;;2.65;1.02;;;28.30;45.20;;;;;;5034884;28;20309;-59
2022/08/10 10:40:34;;;;;;;2.45;1.30;;;28.30;44.90;;;;;;5035100;28;20214;-60
2022/08/10 10:43:08;;;;;;;5.18;1.17;;;28.40;45.20;;;;;;5035333;28;20213;-60
2022/08/10 10:45:50;;;;;;;2.42;1.10;;;28.40;45.00;;;;;;5034817;28;20240;-60
2022/08/10 10:48:22;;;;;;;1.13;0.98;;;28.50;44.60;;;;;;5034714;28;20252;-60
2022/08/10 10:50:58;;;;;;;2.78;1.10;;;28.50;44.80;;;;;;5034922;28;20213;-59
2022/08/10 10:53:35;;;;;;;2.38;0.95;;;28.40;44.30;;;;;;5034651;28;20588;-60
2022/08/10 10:56:10;;;;;;;1.63;1.17;;;28.40;44.50;;;;;;5034706;28;20210;-60
2022/08/10 10:58:43;;;;;;;2.28;1.17;;;28.50;44.70;;;;;;5034857;28;20238;-60
2022/08/10 11:01:24;;;;;;;2.95;1.10;;;28.60;44.50;;;;;;5034244;28;20209;-60
2022/08/10 11:04:18;;;;;;;2.30;1.20;;;28.70;44.40;;;;;;5034831;28;20205;-60
2022/08/10 11:06:55;;;;;;;1.90;1.00;;;28.70;44.90;;;;;;5034089;28;20210;-60
2022/08/10 11:09:28;;;;;;;1.92;1.08;;;28.80;44.50;;;;;;5034190;28;20233;-60
2022/08/10 11:12:00;;;;;;;5.32;1.33;;;29.00;44.60;;;;;;5034020;28;20218;-60
2022/08/10 11:14:32;;;;;;;2.10;1.00;;;29.00;44.10;;;;;;5033874;28;20550;-60
2022/08/10 11:17:07;;;;;;;3.22;1.13;;;29.00;43.90;;;;;;5035226;28;20713;-59
2022/08/10 11:19:42;;;;;;;2.47;1.10;;;28.90;44.50;;;;;;5033941;28;20225;-60
2022/08/10 11:22:17;;;;;;;2.70;1.40;;;29.00;44.20;;;;;;5035592;28;20276;-59
2022/08/10 11:24:52;;;;;;;2.10;1.20;;;29.00;44.20;;;;;;5035432;28;20665;-60
2022/08/10 11:27:25;;;;;;;2.05;1.17;;;29.10;44.20;;;;;;5033606;28;20213;-60
2022/08/10 11:29:58;;;;;;;2.63;0.85;;;29.20;44.20;;;;;;5033741;28;20206;-60
2022/08/10 11:32:42;;;;;;;3.50;1.10;;;29.30;44.30;;;;;;5034154;28;20210;-59
2022/08/10 11:35:18;;;;;;;3.47;1.17;;;29.40;44.10;;;;;;5034303;28;20230;-60
2022/08/10 11:37:55;;;;;;;2.85;1.20;;;29.70;43.80;;;;;;5033584;28;20257;-60
2022/08/10 11:40:26;;;;;;;3.10;1.00;;;29.70;44.00;;;;;;5033468;28;20206;-60
2022/08/10 11:43:04;;;;;;;1.58;1.20;;;29.70;44.20;;;;;;5033179;28;20217;-60
2022/08/10 11:45:35;;;;;;;3.40;2.72;;;29.70;44.10;;;;;;5033105;28;20202;-60
2022/08/10 11:48:12;;;;;;;2.35;1.30;;;29.90;43.90;;;;;;5032865;28;20234;-60
2022/08/10 11:50:47;;;;;;;2.33;1.10;;;30.20;43.80;;;;;;5033695;28;20202;-60
2022/08/10 11:53:20;;;;;;;1.27;1.02;;;30.30;42.80;;;;;;5032947;28;20697;-60
2022/08/10 11:55:54;;;;;;;1.35;0.98;;;30.30;43.10;;;;;;5032967;28;20214;-60
2022/08/10 12:01:10;;;;;;;2.05;1.00;;;30.20;43.20;;;;;;5033381;28;20205;-60
2022/08/10 12:03:41;;;;;;;3.55;1.35;;;30.20;43.20;;;;;;5032398;28;20205;-59
2022/08/10 12:06:12;;;;;;;2.92;1.27;;;30.00;43.10;;;;;;5032788;28;20221;-60
2022/08/10 12:08:42;;;;;;;5.78;1.17;;;30.00;43.30;;;;;;5033650;28;20256;-60
2022/08/10 12:11:13;;;;;;;5.18;1.10;;;30.00;43.40;;;;;;5033682;28;20217;-60
2022/08/10 12:13:46;;;;;;;3.08;1.40;;;30.00;43.20;;;;;;5033450;28;20229;-59
2022/08/10 12:16:16;;;;;;;4.97;1.38;;;30.00;43.50;;;;;;5033105;28;20213;-60
2022/08/10 12:18:47;;;;;;;5.38;1.10;;;30.00;43.20;;;;;;5033294;28;20706;-60
2022/08/10 12:21:19;;;;;;;1.98;1.23;;;30.00;43.00;;;;;;5033388;28;20565;-60
2022/08/10 12:23:50;;;;;;;3.55;1.30;;;30.20;42.80;;;;;;5033814;28;20209;-60
2022/08/10 12:26:23;;;;;;;2.35;1.20;;;30.30;42.80;;;;;;5032759;28;20202;-61
2022/08/10 12:28:58;;;;;;;3.83;1.40;;;30.20;43.00;;;;;;5032491;28;20233;-59
2022/08/10 12:31:29;;;;;;;3.58;1.30;;;30.00;43.40;;;;;;5032900;28;20208;-59
2022/08/10 12:34:13;;;;;;;2.67;1.10;;;30.10;43.20;;;;;;5032756;28;20230;-60
2022/08/10 12:36:42;;;;;;;3.65;1.60;;;30.10;43.00;;;;;;5032713;28;20262;-60
2022/08/10 12:39:16;;;;;;;4.00;1.23;;;30.00;43.10;;;;;;5032881;28;20702;-61
2022/08/10 12:41:49;;;;;;;2.35;0.98;;;30.10;42.70;;;;;;5032600;28;20687;-60
2022/08/10 12:44:21;;;;;;;3.28;1.23;;;30.20;42.30;;;;;;5033260;28;20206;-61
2022/08/10 12:46:56;;;;;;;2.38;1.30;;;30.20;42.40;;;;;;5032559;28;20210;-61
2022/08/10 12:49:32;;;;;;;3.08;1.10;;;30.30;42.60;;;;;;5032963;28;20237;-61
2022/08/10 12:52:04;;;;;;;3.58;1.10;;;30.40;41.90;;;;;;5032602;28;20218;-61
2022/08/10 12:54:36;;;;;;;2.78;1.05;;;30.40;41.70;;;;;;5033029;28;20575;-61
2022/08/10 12:57:07;;;;;;;2.75;1.10;;;30.40;41.70;;;;;;5032269;28;20568;-61
2022/08/10 12:59:37;;;;;;;1.67;1.10;;;30.30;41.70;;;;;;5032178;28;20533;-60
2022/08/10 13:02:05;;;;;;;2.42;1.23;;;30.30;41.70;;;;;;5032396;28;20213;-61
2022/08/10 13:04:37;;;;;;;3.80;1.33;;;30.30;41.70;;;;;;5032125;28;20210;-60
2022/08/10 13:07:07;;;;;;;2.58;1.20;;;30.40;41.40;;;;;;5032065;28;20211;-60
2022/08/10 13:09:35;;;;;;;4.35;1.25;;;30.40;41.30;;;;;;5032394;28;20757;-61
2022/08/10 13:12:05;;;;;;;1.33;1.08;;;30.30;41.40;;;;;;5032508;28;20402;-61